sensor_id;sensor_type;location;lat;lon;timestamp;pressure;altitude;pressure_sealevel;temperature;humidity
77587;BME280;66744;49.716;17.158;2023-03-03T00:00:40;99384.31;;;-0.94;77.84
77587;BME280;66744;49.716;17.158;2023-03-03T00:03:41;99380.72;;;-0.98;77.02
77587;BME280;66744;49.716;17.158;2023-03-03T00:06:44;99380.66;;;-1.01;77.39
77587;BME280;66744;49.716;17.158;2023-03-03T00:09:45;99372.56;;;-1.01;78.17
77587;BME280;66744;49.716;17.158;2023-03-03T00:12:47;99379.59;;;-0.97;77.73
77587;BME280;66744;49.716;17.158;2023-03-03T00:15:49;99371.94;;;-0.95;77.71
77587;BME280;66744;49.716;17.158;2023-03-03T00:18:52;99372.72;;;-0.94;77.06
77587;BME280;66744;49.716;17.158;2023-03-03T00:21:56;99373.09;;;-0.96;77.48
77587;BME280;66744;49.716;17.158;2023-03-03T00:25:00;99379.59;;;-0.97;76.84
77587;BME280;66744;49.716;17.158;2023-03-03T00:28:40;99366.03;;;-1.00;77.46
77587;BME280;66744;49.716;17.158;2023-03-03T00:31:43;99365.63;;;-1.02;77.70
77587;BME280;66744;49.716;17.158;2023-03-03T00:34:45;99371.78;;;-1.02;77.91
77587;BME280;66744;49.716;17.158;2023-03-03T00:37:46;99369.88;;;-1.01;77.23
77587;BME280;66744;49.716;17.158;2023-03-03T00:40:49;99369.78;;;-1.05;77.56
77587;BME280;66744;49.716;17.158;2023-03-03T00:43:50;99379.00;;;-1.06;78.03
77587;BME280;66744;49.716;17.158;2023-03-03T00:46:52;99364.72;;;-1.06;78.07
77587;BME280;66744;49.716;17.158;2023-03-03T00:50:14;99366.41;;;-1.02;77.74
77587;BME280;66744;49.716;17.158;2023-03-03T00:53:19;99363.78;;;-0.98;77.34
77587;BME280;66744;49.716;17.158;2023-03-03T00:56:21;99369.19;;;-0.98;78.11
77587;BME280;66744;49.716;17.158;2023-03-03T00:59:23;99375.78;;;-0.96;77.94
77587;BME280;66744;49.716;17.158;2023-03-03T01:02:24;99366.03;;;-1.00;78.36
77587;BME280;66744;49.716;17.158;2023-03-03T01:05:25;99361.72;;;-1.05;77.85
77587;BME280;66744;49.716;17.158;2023-03-03T01:08:26;99365.72;;;-1.15;78.07
77587;BME280;66744;49.716;17.158;2023-03-03T01:11:27;99364.91;;;-1.15;78.38
77587;BME280;66744;49.716;17.158;2023-03-03T01:14:29;99366.75;;;-1.19;78.25
77587;BME280;66744;49.716;17.158;2023-03-03T01:17:30;99365.97;;;-1.20;79.39
77587;BME280;66744;49.716;17.158;2023-03-03T01:20:31;99353.44;;;-1.28;78.20
77587;BME280;66744;49.716;17.158;2023-03-03T01:23:32;99354.16;;;-1.31;79.39
77587;BME280;66744;49.716;17.158;2023-03-03T01:26:34;99349.38;;;-1.37;79.31
77587;BME280;66744;49.716;17.158;2023-03-03T01:29:35;99346.84;;;-1.46;78.79
77587;BME280;66744;49.716;17.158;2023-03-03T01:32:36;99339.91;;;-1.47;79.31
77587;BME280;66744;49.716;17.158;2023-03-03T01:35:42;99341.19;;;-1.41;79.56
77587;BME280;66744;49.716;17.158;2023-03-03T01:38:43;99336.59;;;-1.40;79.07
77587;BME280;66744;49.716;17.158;2023-03-03T01:41:44;99328.84;;;-1.42;78.54
77587;BME280;66744;49.716;17.158;2023-03-03T01:44:46;99319.91;;;-1.46;78.71
77587;BME280;66744;49.716;17.158;2023-03-03T01:47:52;99323.31;;;-1.49;77.97
77587;BME280;66744;49.716;17.158;2023-03-03T01:51:00;99309.38;;;-1.51;78.68
77587;BME280;66744;49.716;17.158;2023-03-03T01:54:06;99324.00;;;-1.52;78.53
77587;BME280;66744;49.716;17.158;2023-03-03T01:57:16;99318.53;;;-1.55;78.73
77587;BME280;66744;49.716;17.158;2023-03-03T02:00:20;99313.94;;;-1.55;79.06
77587;BME280;66744;49.716;17.158;2023-03-03T02:03:22;99315.72;;;-1.59;79.03
77587;BME280;66744;49.716;17.158;2023-03-03T02:06:32;99308.03;;;-1.60;79.00
77587;BME280;66744;49.716;17.158;2023-03-03T02:09:58;99311.41;;;-1.63;79.64
77587;BME280;66744;49.716;17.158;2023-03-03T02:13:05;99307.47;;;-1.66;79.61
77587;BME280;66744;49.716;17.158;2023-03-03T02:16:06;99311.53;;;-1.72;78.08
77587;BME280;66744;49.716;17.158;2023-03-03T02:19:15;99303.91;;;-1.86;78.21
77587;BME280;66744;49.716;17.158;2023-03-03T02:22:33;99305.88;;;-1.98;78.87
77587;BME280;66744;49.716;17.158;2023-03-03T02:26:04;99298.66;;;-2.10;80.42
77587;BME280;66744;49.716;17.158;2023-03-03T02:29:07;99301.34;;;-2.10;80.51
77587;BME280;66744;49.716;17.158;2023-03-03T02:32:10;99291.47;;;-2.06;80.34
77587;BME280;66744;49.716;17.158;2023-03-03T02:39:04;99280.50;;;-2.13;80.00
77587;BME280;66744;49.716;17.158;2023-03-03T02:42:13;99278.50;;;-2.16;79.41
77587;BME280;66744;49.716;17.158;2023-03-03T02:45:22;99282.22;;;-2.20;81.07
77587;BME280;66744;49.716;17.158;2023-03-03T02:48:23;99284.47;;;-2.22;80.58
77587;BME280;66744;49.716;17.158;2023-03-03T02:51:24;99283.69;;;-2.23;79.66
77587;BME280;66744;49.716;17.158;2023-03-03T02:54:28;99279.44;;;-2.24;80.49
77587;BME280;66744;49.716;17.158;2023-03-03T02:57:31;99286.72;;;-2.25;81.54
77587;BME280;66744;49.716;17.158;2023-03-03T03:00:33;99285.59;;;-2.23;80.31
77587;BME280;66744;49.716;17.158;2023-03-03T03:03:35;99294.09;;;-2.21;80.60
77587;BME280;66744;49.716;17.158;2023-03-03T03:06:39;99293.31;;;-2.22;80.80
77587;BME280;66744;49.716;17.158;2023-03-03T03:09:41;99294.91;;;-2.21;81.32
77587;BME280;66744;49.716;17.158;2023-03-03T03:12:43;99287.72;;;-2.17;81.82
77587;BME280;66744;49.716;17.158;2023-03-03T03:15:46;99287.34;;;-2.15;81.13
77587;BME280;66744;49.716;17.158;2023-03-03T03:18:47;99290.03;;;-2.15;81.62
77587;BME280;66744;49.716;17.158;2023-03-03T03:21:50;99295.69;;;-2.20;81.16
77587;BME280;66744;49.716;17.158;2023-03-03T03:24:53;99294.47;;;-2.23;80.72
77587;BME280;66744;49.716;17.158;2023-03-03T03:27:54;99286.41;;;-2.23;81.50
77587;BME280;66744;49.716;17.158;2023-03-03T03:30:55;99283.69;;;-2.23;80.95
77587;BME280;66744;49.716;17.158;2023-03-03T03:33:57;99289.63;;;-2.17;81.62
77587;BME280;66744;49.716;17.158;2023-03-03T03:37:00;99284.56;;;-2.19;80.27
77587;BME280;66744;49.716;17.158;2023-03-03T03:40:05;99286.19;;;-2.30;79.85
77587;BME280;66744;49.716;17.158;2023-03-03T03:43:07;99280.59;;;-2.37;81.21
77587;BME280;66744;49.716;17.158;2023-03-03T03:46:08;99288.34;;;-2.36;81.03
77587;BME280;66744;49.716;17.158;2023-03-03T03:49:09;99292.25;;;-2.33;80.88
77587;BME280;66744;49.716;17.158;2023-03-03T03:52:11;99284.97;;;-2.33;80.43
77587;BME280;66744;49.716;17.158;2023-03-03T03:55:12;99283.06;;;-2.32;80.23
77587;BME280;66744;49.716;17.158;2023-03-03T03:58:16;99286.88;;;-2.33;80.78
77587;BME280;66744;49.716;17.158;2023-03-03T04:01:22;99278.91;;;-2.30;80.50
77587;BME280;66744;49.716;17.158;2023-03-03T04:04:24;99275.84;;;-2.28;80.53
77587;BME280;66744;49.716;17.158;2023-03-03T04:07:26;99277.44;;;-2.27;80.70
77587;BME280;66744;49.716;17.158;2023-03-03T04:10:27;99281.94;;;-2.31;80.44
77587;BME280;66744;49.716;17.158;2023-03-03T04:13:28;99283.16;;;-2.29;81.10
77587;BME280;66744;49.716;17.158;2023-03-03T04:16:33;99278.91;;;-2.30;80.65
77587;BME280;66744;49.716;17.158;2023-03-03T04:19:34;99278.91;;;-2.30;80.95
77587;BME280;66744;49.716;17.158;2023-03-03T04:22:35;99282.03;;;-2.28;79.77
77587;BME280;66744;49.716;17.158;2023-03-03T04:25:38;99280.59;;;-2.37;80.34
77587;BME280;66744;49.716;17.158;2023-03-03T04:28:47;99273.91;;;-2.43;80.65
77587;BME280;66744;49.716;17.158;2023-03-03T04:31:48;99279.22;;;-2.47;80.25
77587;BME280;66744;49.716;17.158;2023-03-03T04:34:52;99280.31;;;-2.48;80.37
77587;BME280;66744;49.716;17.158;2023-03-03T04:37:54;99274.84;;;-2.51;81.08
77587;BME280;66744;49.716;17.158;2023-03-03T04:40:55;99279.94;;;-2.62;81.78
77587;BME280;66744;49.716;17.158;2023-03-03T04:43:58;99275.66;;;-2.63;81.46
77587;BME280;66744;49.716;17.158;2023-03-03T04:46:59;99279.16;;;-2.62;80.84
77587;BME280;66744;49.716;17.158;2023-03-03T04:50:00;99278.16;;;-2.70;81.91
77587;BME280;66744;49.716;17.158;2023-03-03T04:53:05;99290.72;;;-2.74;82.43
77587;BME280;66744;49.716;17.158;2023-03-03T04:56:07;99286.47;;;-2.75;82.20
77587;BME280;66744;49.716;17.158;2023-03-03T04:59:08;99281.09;;;-2.75;82.42
77587;BME280;66744;49.716;17.158;2023-03-03T05:02:10;99288.16;;;-2.70;82.68
77587;BME280;66744;49.716;17.158;2023-03-03T05:05:12;99282.09;;;-2.67;82.69
77587;BME280;66744;49.716;17.158;2023-03-03T05:08:14;99285.63;;;-2.63;82.55
77587;BME280;66744;49.716;17.158;2023-03-03T05:11:15;99283.31;;;-2.65;81.92
77587;BME280;66744;49.716;17.158;2023-03-03T05:14:16;99274.44;;;-2.65;82.33
77587;BME280;66744;49.716;17.158;2023-03-03T05:17:17;99287.00;;;-2.69;81.76
77587;BME280;66744;49.716;17.158;2023-03-03T05:20:18;99298.44;;;-2.72;82.62
77587;BME280;66744;49.716;17.158;2023-03-03T05:23:20;99293.31;;;-2.77;82.63
77587;BME280;66744;49.716;17.158;2023-03-03T05:26:21;99296.25;;;-2.83;82.45
77587;BME280;66744;49.716;17.158;2023-03-03T05:29:23;99301.50;;;-2.86;83.58
77587;BME280;66744;49.716;17.158;2023-03-03T05:32:24;99300.28;;;-2.89;83.26
77587;BME280;66744;49.716;17.158;2023-03-03T05:35:25;99294.56;;;-2.87;83.27
77587;BME280;66744;49.716;17.158;2023-03-03T05:38:26;99301.41;;;-2.90;83.08
77587;BME280;66744;49.716;17.158;2023-03-03T05:41:28;99306.53;;;-2.97;82.35
77587;BME280;66744;49.716;17.158;2023-03-03T05:44:29;99303.19;;;-2.94;83.37
77587;BME280;66744;49.716;17.158;2023-03-03T05:47:30;99307.78;;;-2.94;82.97
77587;BME280;66744;49.716;17.158;2023-03-03T05:50:31;99314.84;;;-2.90;81.21
77587;BME280;66744;49.716;17.158;2023-03-03T05:53:33;99312.38;;;-2.95;81.12
77587;BME280;66744;49.716;17.158;2023-03-03T05:56:34;99315.84;;;-2.94;83.04
77587;BME280;66744;49.716;17.158;2023-03-03T05:59:35;99311.59;;;-2.95;82.36
77587;BME280;66744;49.716;17.158;2023-03-03T06:02:37;99313.25;;;-2.91;82.69
77587;BME280;66744;49.716;17.158;2023-03-03T06:05:38;99308.78;;;-2.87;82.88
77587;BME280;66744;49.716;17.158;2023-03-03T06:08:39;99310.91;;;-2.80;82.55
77587;BME280;66744;49.716;17.158;2023-03-03T06:11:40;99311.75;;;-2.76;82.42
77587;BME280;66744;49.716;17.158;2023-03-03T06:14:42;99315.78;;;-2.70;83.29
77587;BME280;66744;49.716;17.158;2023-03-03T06:17:43;99321.50;;;-2.59;82.83
77587;BME280;66744;49.716;17.158;2023-03-03T06:20:44;99335.59;;;-2.50;81.85
77587;BME280;66744;49.716;17.158;2023-03-03T06:23:45;99337.69;;;-2.44;81.49
77587;BME280;66744;49.716;17.158;2023-03-03T06:26:47;99341.72;;;-2.38;81.65
77587;BME280;66744;49.716;17.158;2023-03-03T06:29:48;99351.66;;;-2.26;81.89
77587;BME280;66744;49.716;17.158;2023-03-03T06:32:49;99341.38;;;-2.08;82.25
77587;BME280;66744;49.716;17.158;2023-03-03T06:35:52;99353.31;;;-1.94;81.90
77587;BME280;66744;49.716;17.158;2023-03-03T06:38:53;99352.56;;;-1.79;81.49
77587;BME280;66744;49.716;17.158;2023-03-03T06:41:55;99370.28;;;-1.62;80.00
77587;BME280;66744;49.716;17.158;2023-03-03T06:44:56;99378.03;;;-1.60;80.26
77587;BME280;66744;49.716;17.158;2023-03-03T06:47:57;99391.34;;;-1.52;80.47
77587;BME280;66744;49.716;17.158;2023-03-03T06:50:59;99393.19;;;-1.40;80.82
77587;BME280;66744;49.716;17.158;2023-03-03T06:54:09;99399.53;;;-1.33;79.70
77587;BME280;66744;49.716;17.158;2023-03-03T06:57:19;99400.22;;;-1.20;80.20
77587;BME280;66744;49.716;17.158;2023-03-03T07:00:26;99389.78;;;-1.06;79.28
77587;BME280;66744;49.716;17.158;2023-03-03T07:03:34;99399.00;;;-0.91;79.93
77587;BME280;66744;49.716;17.158;2023-03-03T07:06:36;99393.06;;;-0.81;80.01
77587;BME280;66744;49.716;17.158;2023-03-03T07:09:37;99398.38;;;-0.69;79.60
77587;BME280;66744;49.716;17.158;2023-03-03T07:12:38;99394.41;;;-0.56;79.88
77587;BME280;66744;49.716;17.158;2023-03-03T07:15:39;99389.25;;;-0.45;79.47
77587;BME280;66744;49.716;17.158;2023-03-03T07:18:52;99404.63;;;-0.30;78.96
77587;BME280;66744;49.716;17.158;2023-03-03T07:21:54;99406.50;;;-0.15;78.65
77587;BME280;66744;49.716;17.158;2023-03-03T07:24:58;99399.00;;;-0.03;78.98
77587;BME280;66744;49.716;17.158;2023-03-03T07:28:24;99410.94;;;0.16;77.92
77587;BME280;66744;49.716;17.158;2023-03-03T07:31:33;99413.16;;;0.29;76.97
77587;BME280;66744;49.716;17.158;2023-03-03T07:34:39;99409.16;;;0.42;77.35
77587;BME280;66744;49.716;17.158;2023-03-03T07:37:41;99406.66;;;0.53;76.67
77587;BME280;66744;49.716;17.158;2023-03-03T07:40:53;99398.41;;;0.69;76.15
77587;BME280;66744;49.716;17.158;2023-03-03T07:47:14;99390.56;;;1.05;75.16
77587;BME280;66744;49.716;17.158;2023-03-03T07:50:19;99368.81;;;1.25;74.59
77587;BME280;66744;49.716;17.158;2023-03-03T07:53:28;99380.25;;;1.41;74.37
77587;BME280;66744;49.716;17.158;2023-03-03T07:56:34;99380.81;;;1.53;73.79
77587;BME280;66744;49.716;17.158;2023-03-03T07:59:45;99361.28;;;1.67;74.25
77587;BME280;66744;49.716;17.158;2023-03-03T08:03:10;99344.84;;;1.83;73.44
77587;BME280;66744;49.716;17.158;2023-03-03T08:09:41;99347.84;;;2.07;69.85
77587;BME280;66744;49.716;17.158;2023-03-03T08:12:43;99353.78;;;2.20;70.10
77587;BME280;66744;49.716;17.158;2023-03-03T08:19:10;99351.84;;;2.57;69.27
77587;BME280;66744;49.716;17.158;2023-03-03T08:22:38;99363.28;;;2.80;68.95
77587;BME280;66744;49.716;17.158;2023-03-03T08:25:38;99358.03;;;3.02;67.96
77587;BME280;66744;49.716;17.158;2023-03-03T08:28:40;99354.63;;;3.15;66.68
77587;BME280;66744;49.716;17.158;2023-03-03T08:31:41;99352.81;;;3.33;66.83
77587;BME280;66744;49.716;17.158;2023-03-03T08:34:43;99358.31;;;3.44;65.79
77587;BME280;66744;49.716;17.158;2023-03-03T08:37:44;99356.81;;;3.54;65.15
77587;BME280;66744;49.716;17.158;2023-03-03T08:40:46;99357.63;;;3.61;65.77
77587;BME280;66744;49.716;17.158;2023-03-03T08:43:47;99360.38;;;3.65;65.64
77587;BME280;66744;49.716;17.158;2023-03-03T08:46:48;99357.69;;;3.75;65.12
77587;BME280;66744;49.716;17.158;2023-03-03T08:49:52;99354.59;;;3.80;64.80
77587;BME280;66744;49.716;17.158;2023-03-03T08:52:55;99355.44;;;3.88;64.71
77587;BME280;66744;49.716;17.158;2023-03-03T08:55:56;99355.44;;;3.95;63.84
77587;BME280;66744;49.716;17.158;2023-03-03T08:58:58;99355.88;;;4.04;64.30
77587;BME280;66744;49.716;17.158;2023-03-03T09:01:59;99353.56;;;4.13;63.16
77587;BME280;66744;49.716;17.158;2023-03-03T09:05:00;99361.00;;;4.23;64.14
77587;BME280;66744;49.716;17.158;2023-03-03T09:08:02;99369.94;;;4.31;63.39
77587;BME280;66744;49.716;17.158;2023-03-03T09:11:12;99362.59;;;4.42;64.68
77587;BME280;66744;49.716;17.158;2023-03-03T09:14:16;99370.00;;;4.56;64.94
77587;BME280;66744;49.716;17.158;2023-03-03T09:17:28;99385.94;;;4.61;63.40
77587;BME280;66744;49.716;17.158;2023-03-03T09:23:41;99373.91;;;4.76;63.16
77587;BME280;66744;49.716;17.158;2023-03-03T09:26:46;99384.41;;;4.84;63.03
77587;BME280;66744;49.716;17.158;2023-03-03T09:29:48;99389.50;;;4.89;63.19
77587;BME280;66744;49.716;17.158;2023-03-03T09:32:49;99380.16;;;4.97;61.41
77587;BME280;66744;49.716;17.158;2023-03-03T09:35:53;99373.94;;;5.04;61.75
77587;BME280;66744;49.716;17.158;2023-03-03T09:38:59;99364.22;;;5.10;62.04
77587;BME280;66744;49.716;17.158;2023-03-03T09:48:51;99367.31;;;5.37;62.57
77587;BME280;66744;49.716;17.158;2023-03-03T09:52:24;99360.25;;;5.53;64.03
77587;BME280;66744;49.716;17.158;2023-03-03T09:55:44;99352.81;;;5.68;62.91
77587;BME280;66744;49.716;17.158;2023-03-03T09:59:09;99348.09;;;5.79;61.62
77587;BME280;66744;49.716;17.158;2023-03-03T10:05:32;99358.59;;;5.98;60.78
77587;BME280;66744;49.716;17.158;2023-03-03T10:15:13;99363.53;;;6.25;59.73
77587;BME280;66744;49.716;17.158;2023-03-03T10:18:40;99363.16;;;6.26;59.63
77587;BME280;66744;49.716;17.158;2023-03-03T10:22:25;99372.47;;;6.32;60.05
77587;BME280;66744;49.716;17.158;2023-03-03T10:25:41;99372.00;;;6.44;58.22
77587;BME280;66744;49.716;17.158;2023-03-03T10:35:45;99366.03;;;6.63;60.22
77587;BME280;66744;49.716;17.158;2023-03-03T10:39:13;99367.16;;;6.69;58.84
77587;BME280;66744;49.716;17.158;2023-03-03T10:55:34;99356.75;;;7.05;57.61
77587;BME280;66744;49.716;17.158;2023-03-03T11:08:45;99346.41;;;7.27;58.44
77587;BME280;66744;49.716;17.158;2023-03-03T11:15:12;99343.56;;;7.38;56.07
77587;BME280;66744;49.716;17.158;2023-03-03T11:24:45;99347.03;;;7.45;55.38
77587;BME280;66744;49.716;17.158;2023-03-03T11:31:22;99326.59;;;7.57;55.68
77587;BME280;66744;49.716;17.158;2023-03-03T11:38:30;99321.31;;;7.73;54.31
77587;BME280;66744;49.716;17.158;2023-03-03T11:41:41;99318.03;;;7.85;55.77
77587;BME280;66744;49.716;17.158;2023-03-03T11:44:51;99326.13;;;7.96;54.48
77587;BME280;66744;49.716;17.158;2023-03-03T11:54:51;99312.63;;;8.12;52.81
77587;BME280;66744;49.716;17.158;2023-03-03T11:58:03;99314.22;;;8.09;52.14
77587;BME280;66744;49.716;17.158;2023-03-03T12:01:52;99306.03;;;8.09;53.69
77587;BME280;66744;49.716;17.158;2023-03-03T12:08:34;99311.53;;;8.06;55.02
77587;BME280;66744;49.716;17.158;2023-03-03T12:11:46;99304.50;;;8.05;54.18
77587;BME280;66744;49.716;17.158;2023-03-03T12:15:01;99300.59;;;8.06;54.59
77587;BME280;66744;49.716;17.158;2023-03-03T12:28:24;99298.13;;;8.15;52.97
77587;BME280;66744;49.716;17.158;2023-03-03T12:34:47;99295.38;;;8.15;53.80
77587;BME280;66744;49.716;17.158;2023-03-03T12:44:17;99280.34;;;8.26;54.97
77587;BME280;66744;49.716;17.158;2023-03-03T12:47:37;99275.66;;;8.27;52.93
77587;BME280;66744;49.716;17.158;2023-03-03T12:57:30;99294.38;;;8.32;56.17
77587;BME280;66744;49.716;17.158;2023-03-03T13:10:48;99304.50;;;7.00;59.21
77587;BME280;66744;49.716;17.158;2023-03-03T13:14:01;99301.50;;;6.87;60.70
77587;BME280;66744;49.716;17.158;2023-03-03T13:17:40;99297.34;;;6.68;61.43
77587;BME280;66744;49.716;17.158;2023-03-03T13:24:00;99292.81;;;6.51;62.39
77587;BME280;66744;49.716;17.158;2023-03-03T13:27:16;99294.34;;;6.56;62.58
77587;BME280;66744;49.716;17.158;2023-03-03T13:30:22;99299.81;;;6.52;62.29
77587;BME280;66744;49.716;17.158;2023-03-03T13:33:28;99306.06;;;6.53;63.38
77587;BME280;66744;49.716;17.158;2023-03-03T13:36:52;99305.66;;;6.51;61.94
77587;BME280;66744;49.716;17.158;2023-03-03T13:47:10;99301.38;;;6.53;63.33
77587;BME280;66744;49.716;17.158;2023-03-03T14:00:15;99295.91;;;6.53;61.85
77587;BME280;66744;49.716;17.158;2023-03-03T14:07:19;99290.19;;;6.37;62.17
77587;BME280;66744;49.716;17.158;2023-03-03T14:10:23;99291.38;;;6.33;62.03
77587;BME280;66744;49.716;17.158;2023-03-03T14:13:31;99289.03;;;6.35;62.72
77587;BME280;66744;49.716;17.158;2023-03-03T14:16:49;99294.53;;;6.28;63.28
77587;BME280;66744;49.716;17.158;2023-03-03T14:20:04;99292.16;;;6.30;62.93
77587;BME280;66744;49.716;17.158;2023-03-03T14:23:18;99284.41;;;6.25;63.29
77587;BME280;66744;49.716;17.158;2023-03-03T14:26:21;99283.69;;;6.17;63.45
77587;BME280;66744;49.716;17.158;2023-03-03T14:32:29;99275.53;;;6.13;63.04
77587;BME280;66744;49.716;17.158;2023-03-03T14:35:34;99278.63;;;6.12;63.55
77587;BME280;66744;49.716;17.158;2023-03-03T14:38:39;99275.91;;;6.12;63.09
77587;BME280;66744;49.716;17.158;2023-03-03T14:41:41;99274.75;;;6.09;63.48
77587;BME280;66744;49.716;17.158;2023-03-03T14:47:47;99280.63;;;6.11;63.58
77587;BME280;66744;49.716;17.158;2023-03-03T14:50:49;99281.41;;;6.08;63.78
77587;BME280;66744;49.716;17.158;2023-03-03T14:53:51;99278.28;;;6.06;61.37
77587;BME280;66744;49.716;17.158;2023-03-03T14:57:02;99282.97;;;6.06;62.57
77587;BME280;66744;49.716;17.158;2023-03-03T15:03:21;99284.53;;;6.03;62.99
77587;BME280;66744;49.716;17.158;2023-03-03T15:09:49;99279.56;;;5.84;62.95
77587;BME280;66744;49.716;17.158;2023-03-03T15:12:50;99278.78;;;5.77;64.76
77587;BME280;66744;49.716;17.158;2023-03-03T15:19:22;99285.81;;;5.74;62.97
77587;BME280;66744;49.716;17.158;2023-03-03T15:32:53;99283.94;;;5.57;65.49
77587;BME280;66744;49.716;17.158;2023-03-03T15:36:17;99291.75;;;5.55;66.23
77587;BME280;66744;49.716;17.158;2023-03-03T16:03:22;99306.66;;;4.69;68.13
77587;BME280;66744;49.716;17.158;2023-03-03T16:06:39;99310.94;;;4.56;68.46
77587;BME280;66744;49.716;17.158;2023-03-03T16:10:01;99311.31;;;4.44;68.76
77587;BME280;66744;49.716;17.158;2023-03-03T16:13:21;99312.84;;;4.27;69.55
77587;BME280;66744;49.716;17.158;2023-03-03T16:20:24;99317.41;;;3.95;69.64
77587;BME280;66744;49.716;17.158;2023-03-03T16:23:49;99316.59;;;3.77;70.86
77587;BME280;66744;49.716;17.158;2023-03-03T16:26:59;99327.38;;;3.66;71.06
77587;BME280;66744;49.716;17.158;2023-03-03T16:30:30;99325.78;;;3.55;71.64
77587;BME280;66744;49.716;17.158;2023-03-03T16:46:33;99358.31;;;2.90;73.62
77587;BME280;66744;49.716;17.158;2023-03-03T16:49:54;99359.81;;;2.84;74.06
77587;BME280;66744;49.716;17.158;2023-03-03T16:59:41;99371.66;;;2.65;75.04
77587;BME280;66744;49.716;17.158;2023-03-03T17:06:22;99387.22;;;2.31;74.89
77587;BME280;66744;49.716;17.158;2023-03-03T17:22:56;99385.69;;;2.00;76.09
77587;BME280;66744;49.716;17.158;2023-03-03T17:36:13;99387.03;;;1.54;75.50
77587;BME280;66744;49.716;17.158;2023-03-03T17:42:46;99386.56;;;1.48;74.96
77587;BME280;66744;49.716;17.158;2023-03-03T17:45:53;99395.72;;;1.40;74.31
77587;BME280;66744;49.716;17.158;2023-03-03T17:52:25;99405.88;;;1.21;74.65
77587;BME280;66744;49.716;17.158;2023-03-03T17:55:57;99414.31;;;1.19;73.73
77587;BME280;66744;49.716;17.158;2023-03-03T18:12:03;99436.28;;;1.14;74.84
77587;BME280;66744;49.716;17.158;2023-03-03T18:18:57;99437.13;;;0.95;74.04
77587;BME280;66744;49.716;17.158;2023-03-03T18:22:10;99431.69;;;0.92;74.94
77587;BME280;66744;49.716;17.158;2023-03-03T18:28:20;99441.56;;;0.84;75.37
77587;BME280;66744;49.716;17.158;2023-03-03T18:31:25;99429.81;;;0.73;75.90
77587;BME280;66744;49.716;17.158;2023-03-03T18:34:38;99439.69;;;0.66;76.16
77587;BME280;66744;49.716;17.158;2023-03-03T18:37:42;99443.56;;;0.65;76.46
77587;BME280;66744;49.716;17.158;2023-03-03T18:40:57;99443.63;;;0.68;76.02
77587;BME280;66744;49.716;17.158;2023-03-03T18:44:00;99438.63;;;0.70;76.64
77587;BME280;66744;49.716;17.158;2023-03-03T18:47:05;99432.03;;;0.68;76.31
77587;BME280;66744;49.716;17.158;2023-03-03T18:50:32;99436.94;;;0.62;76.06
77587;BME280;66744;49.716;17.158;2023-03-03T18:53:36;99433.31;;;0.54;76.91
77587;BME280;66744;49.716;17.158;2023-03-03T18:59:54;99437.03;;;0.46;76.75
77587;BME280;66744;49.716;17.158;2023-03-03T19:02:58;99440.78;;;0.42;76.72
77587;BME280;66744;49.716;17.158;2023-03-03T19:06:01;99441.47;;;0.35;77.20
77587;BME280;66744;49.716;17.158;2023-03-03T19:09:05;99447.22;;;0.34;77.45
77587;BME280;66744;49.716;17.158;2023-03-03T19:12:08;99451.47;;;0.35;77.23
77587;BME280;66744;49.716;17.158;2023-03-03T19:18:56;99453.25;;;0.27;76.98
77587;BME280;66744;49.716;17.158;2023-03-03T19:22:24;99455.59;;;0.29;77.06
77587;BME280;66744;49.716;17.158;2023-03-03T19:25:27;99452.03;;;0.25;77.09
77587;BME280;66744;49.716;17.158;2023-03-03T19:28:42;99447.72;;;0.20;77.09
77587;BME280;66744;49.716;17.158;2023-03-03T19:45:18;99453.19;;;0.05;79.30
77587;BME280;66744;49.716;17.158;2023-03-03T19:48:54;99453.50;;;0.03;79.81
77587;BME280;66744;49.716;17.158;2023-03-03T19:52:03;99452.75;;;0.03;79.54
77587;BME280;66744;49.716;17.158;2023-03-03T20:08:43;99455.13;;;-0.12;79.82
77587;BME280;66744;49.716;17.158;2023-03-03T20:15:07;99461.44;;;-0.23;80.05
77587;BME280;66744;49.716;17.158;2023-03-03T20:21:43;99464.00;;;-0.30;80.23
77587;BME280;66744;49.716;17.158;2023-03-03T20:24:57;99460.94;;;-0.29;80.26
77587;BME280;66744;49.716;17.158;2023-03-03T20:28:14;99464.72;;;-0.33;80.46
77587;BME280;66744;49.716;17.158;2023-03-03T20:34:41;99459.13;;;-0.40;80.56
77587;BME280;66744;49.716;17.158;2023-03-03T20:41:33;99459.56;;;-0.38;81.06
77587;BME280;66744;49.716;17.158;2023-03-03T20:47:58;99468.19;;;-0.33;80.66
77587;BME280;66744;49.716;17.158;2023-03-03T20:51:28;99466.63;;;-0.34;80.48
77587;BME280;66744;49.716;17.158;2023-03-03T20:58:41;99474.03;;;-0.46;80.24
77587;BME280;66744;49.716;17.158;2023-03-03T21:02:07;99472.41;;;-0.51;80.66
77587;BME280;66744;49.716;17.158;2023-03-03T21:05:17;99465.69;;;-0.57;80.63
77587;BME280;66744;49.716;17.158;2023-03-03T21:11:54;99462.03;;;-0.65;81.74
77587;BME280;66744;49.716;17.158;2023-03-03T21:15:06;99461.94;;;-0.68;81.93
77587;BME280;66744;49.716;17.158;2023-03-03T21:18:28;99455.25;;;-0.74;81.93
77587;BME280;66744;49.716;17.158;2023-03-03T21:21:38;99450.31;;;-0.72;81.75
77587;BME280;66744;49.716;17.158;2023-03-03T21:24:50;99438.81;;;-0.69;81.08
77587;BME280;66744;49.716;17.158;2023-03-03T21:27:51;99437.81;;;-0.80;80.68
77587;BME280;66744;49.716;17.158;2023-03-03T21:34:17;99447.38;;;-0.98;81.58
77587;BME280;66744;49.716;17.158;2023-03-03T21:37:47;99437.28;;;-1.01;81.50
77587;BME280;66744;49.716;17.158;2023-03-03T21:40:58;99430.22;;;-1.06;81.60
77587;BME280;66744;49.716;17.158;2023-03-03T21:43:59;99430.50;;;-1.11;82.06
77587;BME280;66744;49.716;17.158;2023-03-03T21:47:01;99430.81;;;-1.13;82.44
77587;BME280;66744;49.716;17.158;2023-03-03T21:50:03;99421.19;;;-1.14;81.99
77587;BME280;66744;49.716;17.158;2023-03-03T21:53:05;99426.56;;;-1.14;81.78
77587;BME280;66744;49.716;17.158;2023-03-03T21:56:06;99428.50;;;-1.14;81.88
77587;BME280;66744;49.716;17.158;2023-03-03T21:59:07;99437.59;;;-1.19;81.95
77587;BME280;66744;49.716;17.158;2023-03-03T22:02:09;99439.78;;;-1.24;81.95
77587;BME280;66744;49.716;17.158;2023-03-03T22:05:10;99449.44;;;-1.23;82.00